sensor_id;sensor_type;location;lat;lon;timestamp;P1;durP1;ratioP1;P2;durP2;ratioP2
39896;SDS011;25567;48.276;14.242;2022-11-15T00:00:54;26.27;;;9.00;;
39896;SDS011;25567;48.276;14.242;2022-11-15T00:03:22;26.40;;;9.32;;
39896;SDS011;25567;48.276;14.242;2022-11-15T00:05:50;50.80;;;11.48;;
39896;SDS011;25567;48.276;14.242;2022-11-15T00:08:17;24.20;;;9.65;;
39896;SDS011;25567;48.276;14.242;2022-11-15T00:13:27;28.25;;;9.98;;
39896;SDS011;25567;48.276;14.242;2022-11-15T00:15:56;29.10;;;10.88;;
39896;SDS011;25567;48.276;14.242;2022-11-15T00:18:24;25.38;;;10.10;;
39896;SDS011;25567;48.276;14.242;2022-11-15T00:20:51;29.98;;;9.63;;
39896;SDS011;25567;48.276;14.242;2022-11-15T00:23:18;26.83;;;9.98;;
39896;SDS011;25567;48.276;14.242;2022-11-15T00:25:45;25.10;;;10.13;;
39896;SDS011;25567;48.276;14.242;2022-11-15T00:28:12;24.60;;;10.43;;
39896;SDS011;25567;48.276;14.242;2022-11-15T00:30:38;32.42;;;11.10;;
39896;SDS011;25567;48.276;14.242;2022-11-15T00:33:05;27.27;;;11.30;;
39896;SDS011;25567;48.276;14.242;2022-11-15T00:35:32;33.83;;;12.65;;
39896;SDS011;25567;48.276;14.242;2022-11-15T00:38:01;37.45;;;11.50;;
39896;SDS011;25567;48.276;14.242;2022-11-15T00:40:28;33.08;;;12.02;;
39896;SDS011;25567;48.276;14.242;2022-11-15T00:42:55;29.52;;;11.85;;
39896;SDS011;25567;48.276;14.242;2022-11-15T00:45:22;29.38;;;12.00;;
39896;SDS011;25567;48.276;14.242;2022-11-15T00:47:49;31.38;;;12.43;;
39896;SDS011;25567;48.276;14.242;2022-11-15T00:50:16;31.85;;;12.02;;
39896;SDS011;25567;48.276;14.242;2022-11-15T00:52:43;27.95;;;12.63;;
39896;SDS011;25567;48.276;14.242;2022-11-15T00:55:14;29.92;;;11.35;;
39896;SDS011;25567;48.276;14.242;2022-11-15T00:57:42;25.48;;;8.75;;
39896;SDS011;25567;48.276;14.242;2022-11-15T01:00:10;24.30;;;10.70;;
39896;SDS011;25567;48.276;14.242;2022-11-15T01:02:40;21.00;;;9.13;;
39896;SDS011;25567;48.276;14.242;2022-11-15T01:05:07;25.55;;;10.57;;
39896;SDS011;25567;48.276;14.242;2022-11-15T01:07:34;29.08;;;11.13;;
39896;SDS011;25567;48.276;14.242;2022-11-15T01:10:01;29.90;;;11.70;;
39896;SDS011;25567;48.276;14.242;2022-11-15T01:12:27;32.15;;;13.05;;
39896;SDS011;25567;48.276;14.242;2022-11-15T01:14:54;31.27;;;11.82;;
39896;SDS011;25567;48.276;14.242;2022-11-15T01:17:21;27.65;;;11.40;;
39896;SDS011;25567;48.276;14.242;2022-11-15T01:19:47;27.08;;;10.75;;
39896;SDS011;25567;48.276;14.242;2022-11-15T01:22:14;25.58;;;10.48;;
39896;SDS011;25567;48.276;14.242;2022-11-15T01:24:41;22.33;;;10.98;;
39896;SDS011;25567;48.276;14.242;2022-11-15T01:27:07;28.17;;;10.35;;
39896;SDS011;25567;48.276;14.242;2022-11-15T01:29:38;31.20;;;10.57;;
39896;SDS011;25567;48.276;14.242;2022-11-15T01:32:04;29.52;;;11.68;;
39896;SDS011;25567;48.276;14.242;2022-11-15T01:34:32;27.05;;;9.52;;
39896;SDS011;25567;48.276;14.242;2022-11-15T01:36:58;20.55;;;9.70;;
39896;SDS011;25567;48.276;14.242;2022-11-15T01:39:25;26.27;;;9.52;;
39896;SDS011;25567;48.276;14.242;2022-11-15T01:41:53;28.65;;;9.60;;
39896;SDS011;25567;48.276;14.242;2022-11-15T01:47:02;32.30;;;11.23;;
39896;SDS011;25567;48.276;14.242;2022-11-15T01:49:33;25.02;;;11.02;;
39896;SDS011;25567;48.276;14.242;2022-11-15T01:52:05;29.30;;;10.57;;
39896;SDS011;25567;48.276;14.242;2022-11-15T01:54:35;28.17;;;9.65;;
39896;SDS011;25567;48.276;14.242;2022-11-15T01:57:03;27.50;;;10.80;;
39896;SDS011;25567;48.276;14.242;2022-11-15T01:59:34;25.75;;;10.48;;
39896;SDS011;25567;48.276;14.242;2022-11-15T02:02:03;22.50;;;9.35;;
39896;SDS011;25567;48.276;14.242;2022-11-15T02:04:33;27.52;;;10.98;;
39896;SDS011;25567;48.276;14.242;2022-11-15T02:07:04;30.50;;;9.70;;
39896;SDS011;25567;48.276;14.242;2022-11-15T02:09:32;29.30;;;10.25;;
39896;SDS011;25567;48.276;14.242;2022-11-15T02:11:59;22.92;;;10.20;;
39896;SDS011;25567;48.276;14.242;2022-11-15T02:14:26;28.90;;;9.82;;
39896;SDS011;25567;48.276;14.242;2022-11-15T02:17:08;25.10;;;9.82;;
39896;SDS011;25567;48.276;14.242;2022-11-15T02:20:00;21.10;;;8.75;;
39896;SDS011;25567;48.276;14.242;2022-11-15T02:22:45;23.90;;;8.40;;
39896;SDS011;25567;48.276;14.242;2022-11-15T02:25:36;21.15;;;9.23;;
39896;SDS011;25567;48.276;14.242;2022-11-15T02:33:53;24.00;;;9.95;;
39896;SDS011;25567;48.276;14.242;2022-11-15T02:39:30;25.38;;;10.23;;
39896;SDS011;25567;48.276;14.242;2022-11-15T02:42:07;21.48;;;8.82;;
39896;SDS011;25567;48.276;14.242;2022-11-15T02:44:57;19.42;;;8.68;;
39896;SDS011;25567;48.276;14.242;2022-11-15T02:47:30;24.42;;;9.85;;
39896;SDS011;25567;48.276;14.242;2022-11-15T02:50:06;29.52;;;10.07;;
39896;SDS011;25567;48.276;14.242;2022-11-15T02:52:36;24.70;;;10.30;;
39896;SDS011;25567;48.276;14.242;2022-11-15T02:55:02;26.35;;;10.85;;
39896;SDS011;25567;48.276;14.242;2022-11-15T03:00:12;24.40;;;9.13;;
39896;SDS011;25567;48.276;14.242;2022-11-15T03:08:31;22.55;;;9.63;;
39896;SDS011;25567;48.276;14.242;2022-11-15T03:11:06;23.08;;;9.65;;
39896;SDS011;25567;48.276;14.242;2022-11-15T03:16:22;25.55;;;10.23;;
39896;SDS011;25567;48.276;14.242;2022-11-15T03:18:55;22.98;;;9.43;;
39896;SDS011;25567;48.276;14.242;2022-11-15T03:21:29;23.30;;;10.20;;
39896;SDS011;25567;48.276;14.242;2022-11-15T03:24:00;25.10;;;10.05;;
39896;SDS011;25567;48.276;14.242;2022-11-15T03:26:30;26.08;;;10.20;;
39896;SDS011;25567;48.276;14.242;2022-11-15T03:29:01;24.13;;;9.93;;
39896;SDS011;25567;48.276;14.242;2022-11-15T03:31:33;20.15;;;9.10;;
39896;SDS011;25567;48.276;14.242;2022-11-15T03:34:28;21.40;;;9.65;;
39896;SDS011;25567;48.276;14.242;2022-11-15T03:36:58;25.52;;;10.38;;
39896;SDS011;25567;48.276;14.242;2022-11-15T03:39:25;27.60;;;10.45;;
39896;SDS011;25567;48.276;14.242;2022-11-15T03:44:28;28.27;;;10.63;;
39896;SDS011;25567;48.276;14.242;2022-11-15T03:49:51;22.60;;;9.57;;
39896;SDS011;25567;48.276;14.242;2022-11-15T03:52:20;28.63;;;10.43;;
39896;SDS011;25567;48.276;14.242;2022-11-15T03:54:49;25.10;;;9.75;;
39896;SDS011;25567;48.276;14.242;2022-11-15T03:57:18;28.55;;;10.05;;
39896;SDS011;25567;48.276;14.242;2022-11-15T03:59:45;29.40;;;11.02;;
39896;SDS011;25567;48.276;14.242;2022-11-15T04:02:12;30.30;;;10.82;;
39896;SDS011;25567;48.276;14.242;2022-11-15T04:04:39;27.92;;;11.02;;
39896;SDS011;25567;48.276;14.242;2022-11-15T04:07:06;25.52;;;11.00;;
39896;SDS011;25567;48.276;14.242;2022-11-15T04:09:33;25.30;;;11.10;;
39896;SDS011;25567;48.276;14.242;2022-11-15T04:11:59;26.55;;;11.00;;
39896;SDS011;25567;48.276;14.242;2022-11-15T04:14:26;25.35;;;10.75;;
39896;SDS011;25567;48.276;14.242;2022-11-15T04:16:53;24.77;;;11.07;;
39896;SDS011;25567;48.276;14.242;2022-11-15T04:19:19;28.90;;;10.95;;
39896;SDS011;25567;48.276;14.242;2022-11-15T04:22:01;31.40;;;10.60;;
39896;SDS011;25567;48.276;14.242;2022-11-15T04:24:43;27.13;;;11.07;;
39896;SDS011;25567;48.276;14.242;2022-11-15T04:27:10;26.23;;;11.02;;
39896;SDS011;25567;48.276;14.242;2022-11-15T04:29:38;27.52;;;11.00;;
39896;SDS011;25567;48.276;14.242;2022-11-15T04:32:06;25.40;;;11.30;;
39896;SDS011;25567;48.276;14.242;2022-11-15T04:34:33;30.90;;;11.95;;
39896;SDS011;25567;48.276;14.242;2022-11-15T04:37:00;23.52;;;10.50;;
39896;SDS011;25567;48.276;14.242;2022-11-15T04:39:42;25.27;;;12.00;;
39896;SDS011;25567;48.276;14.242;2022-11-15T04:42:09;30.98;;;11.43;;
39896;SDS011;25567;48.276;14.242;2022-11-15T04:44:37;25.20;;;11.35;;
39896;SDS011;25567;48.276;14.242;2022-11-15T04:47:03;29.52;;;11.23;;
39896;SDS011;25567;48.276;14.242;2022-11-15T04:49:30;26.80;;;10.35;;
39896;SDS011;25567;48.276;14.242;2022-11-15T04:51:57;30.35;;;10.88;;
39896;SDS011;25567;48.276;14.242;2022-11-15T04:54:24;25.80;;;10.15;;
39896;SDS011;25567;48.276;14.242;2022-11-15T04:56:50;26.63;;;11.65;;
39896;SDS011;25567;48.276;14.242;2022-11-15T04:59:17;21.35;;;9.93;;
39896;SDS011;25567;48.276;14.242;2022-11-15T05:01:44;24.60;;;10.23;;
39896;SDS011;25567;48.276;14.242;2022-11-15T05:04:14;22.40;;;10.20;;
39896;SDS011;25567;48.276;14.242;2022-11-15T05:06:48;23.58;;;10.25;;
39896;SDS011;25567;48.276;14.242;2022-11-15T05:09:17;25.20;;;11.30;;
39896;SDS011;25567;48.276;14.242;2022-11-15T05:11:44;27.13;;;11.00;;
39896;SDS011;25567;48.276;14.242;2022-11-15T05:14:11;22.80;;;10.70;;
39896;SDS011;25567;48.276;14.242;2022-11-15T05:16:39;28.08;;;11.00;;
39896;SDS011;25567;48.276;14.242;2022-11-15T05:19:06;29.77;;;11.68;;
39896;SDS011;25567;48.276;14.242;2022-11-15T05:21:33;30.88;;;12.02;;
39896;SDS011;25567;48.276;14.242;2022-11-15T05:24:00;38.15;;;16.58;;
39896;SDS011;25567;48.276;14.242;2022-11-15T05:26:27;35.97;;;13.93;;
39896;SDS011;25567;48.276;14.242;2022-11-15T05:28:55;32.00;;;11.52;;
39896;SDS011;25567;48.276;14.242;2022-11-15T05:31:26;29.58;;;11.63;;
39896;SDS011;25567;48.276;14.242;2022-11-15T05:33:57;33.05;;;11.43;;
39896;SDS011;25567;48.276;14.242;2022-11-15T05:38:57;42.60;;;16.45;;
39896;SDS011;25567;48.276;14.242;2022-11-15T05:41:25;50.03;;;18.75;;
39896;SDS011;25567;48.276;14.242;2022-11-15T05:43:57;39.03;;;14.75;;
39896;SDS011;25567;48.276;14.242;2022-11-15T05:46:24;42.00;;;15.40;;
39896;SDS011;25567;48.276;14.242;2022-11-15T05:48:51;37.58;;;14.65;;
39896;SDS011;25567;48.276;14.242;2022-11-15T05:51:20;42.58;;;16.38;;
39896;SDS011;25567;48.276;14.242;2022-11-15T05:53:48;42.83;;;16.88;;
39896;SDS011;25567;48.276;14.242;2022-11-15T05:56:17;42.88;;;15.43;;
39896;SDS011;25567;48.276;14.242;2022-11-15T05:58:44;35.92;;;16.08;;
39896;SDS011;25567;48.276;14.242;2022-11-15T06:01:10;42.22;;;16.83;;
39896;SDS011;25567;48.276;14.242;2022-11-15T06:03:37;39.53;;;15.00;;
39896;SDS011;25567;48.276;14.242;2022-11-15T06:06:04;33.90;;;14.15;;
39896;SDS011;25567;48.276;14.242;2022-11-15T06:08:31;39.83;;;14.43;;
39896;SDS011;25567;48.276;14.242;2022-11-15T06:11:02;38.35;;;14.75;;
39896;SDS011;25567;48.276;14.242;2022-11-15T06:13:31;34.17;;;15.00;;
39896;SDS011;25567;48.276;14.242;2022-11-15T06:15:59;41.10;;;15.07;;
39896;SDS011;25567;48.276;14.242;2022-11-15T06:18:27;36.92;;;15.40;;
39896;SDS011;25567;48.276;14.242;2022-11-15T06:20:57;39.00;;;14.60;;
39896;SDS011;25567;48.276;14.242;2022-11-15T06:23:25;41.65;;;14.30;;
39896;SDS011;25567;48.276;14.242;2022-11-15T06:25:52;47.60;;;17.50;;
39896;SDS011;25567;48.276;14.242;2022-11-15T06:28:18;51.50;;;17.25;;
39896;SDS011;25567;48.276;14.242;2022-11-15T06:30:45;39.55;;;15.93;;
39896;SDS011;25567;48.276;14.242;2022-11-15T06:33:18;30.10;;;11.88;;
39896;SDS011;25567;48.276;14.242;2022-11-15T06:35:45;33.15;;;12.00;;
39896;SDS011;25567;48.276;14.242;2022-11-15T06:38:11;37.70;;;14.40;;
39896;SDS011;25567;48.276;14.242;2022-11-15T06:40:38;39.42;;;14.98;;
39896;SDS011;25567;48.276;14.242;2022-11-15T06:43:05;34.88;;;13.27;;
39896;SDS011;25567;48.276;14.242;2022-11-15T06:45:32;39.88;;;13.85;;
39896;SDS011;25567;48.276;14.242;2022-11-15T06:47:59;37.78;;;14.23;;
39896;SDS011;25567;48.276;14.242;2022-11-15T06:50:25;35.33;;;14.68;;
39896;SDS011;25567;48.276;14.242;2022-11-15T06:52:52;44.78;;;15.88;;
39896;SDS011;25567;48.276;14.242;2022-11-15T06:55:19;43.38;;;16.70;;
39896;SDS011;25567;48.276;14.242;2022-11-15T06:57:46;54.75;;;18.23;;
39896;SDS011;25567;48.276;14.242;2022-11-15T07:00:14;62.70;;;18.02;;
39896;SDS011;25567;48.276;14.242;2022-11-15T07:02:42;53.88;;;18.15;;
39896;SDS011;25567;48.276;14.242;2022-11-15T07:05:08;54.70;;;19.05;;
39896;SDS011;25567;48.276;14.242;2022-11-15T07:07:35;47.42;;;18.05;;
39896;SDS011;25567;48.276;14.242;2022-11-15T07:10:02;56.25;;;17.35;;
39896;SDS011;25567;48.276;14.242;2022-11-15T07:12:29;56.00;;;20.08;;
39896;SDS011;25567;48.276;14.242;2022-11-15T07:14:55;53.38;;;19.48;;
39896;SDS011;25567;48.276;14.242;2022-11-15T07:17:22;62.63;;;21.08;;
39896;SDS011;25567;48.276;14.242;2022-11-15T07:19:49;76.65;;;23.38;;
39896;SDS011;25567;48.276;14.242;2022-11-15T07:22:15;88.97;;;23.58;;
39896;SDS011;25567;48.276;14.242;2022-11-15T07:24:42;79.10;;;24.45;;
39896;SDS011;25567;48.276;14.242;2022-11-15T07:27:09;84.65;;;26.35;;
39896;SDS011;25567;48.276;14.242;2022-11-15T07:29:35;84.35;;;25.67;;
39896;SDS011;25567;48.276;14.242;2022-11-15T07:32:02;93.65;;;26.63;;
39896;SDS011;25567;48.276;14.242;2022-11-15T07:34:29;77.97;;;26.60;;
39896;SDS011;25567;48.276;14.242;2022-11-15T07:36:55;92.22;;;28.73;;
39896;SDS011;25567;48.276;14.242;2022-11-15T07:39:22;187.77;;;30.60;;
39896;SDS011;25567;48.276;14.242;2022-11-15T07:41:49;129.05;;;28.08;;
39896;SDS011;25567;48.276;14.242;2022-11-15T07:44:35;74.72;;;27.08;;
39896;SDS011;25567;48.276;14.242;2022-11-15T07:47:02;79.30;;;27.77;;
39896;SDS011;25567;48.276;14.242;2022-11-15T07:49:29;123.38;;;31.80;;
39896;SDS011;25567;48.276;14.242;2022-11-15T07:51:55;113.22;;;29.48;;
39896;SDS011;25567;48.276;14.242;2022-11-15T07:54:22;146.50;;;29.73;;
39896;SDS011;25567;48.276;14.242;2022-11-15T07:56:48;131.15;;;29.98;;
39896;SDS011;25567;48.276;14.242;2022-11-15T07:59:15;133.60;;;30.38;;
39896;SDS011;25567;48.276;14.242;2022-11-15T08:01:42;92.85;;;28.67;;
39896;SDS011;25567;48.276;14.242;2022-11-15T08:04:10;122.32;;;31.60;;
39896;SDS011;25567;48.276;14.242;2022-11-15T08:06:37;117.53;;;30.55;;
39896;SDS011;25567;48.276;14.242;2022-11-15T08:09:04;140.48;;;32.40;;
39896;SDS011;25567;48.276;14.242;2022-11-15T08:11:31;136.25;;;31.95;;
39896;SDS011;25567;48.276;14.242;2022-11-15T08:13:58;147.52;;;33.33;;
39896;SDS011;25567;48.276;14.242;2022-11-15T08:16:24;109.75;;;31.52;;
39896;SDS011;25567;48.276;14.242;2022-11-15T08:18:51;128.57;;;32.88;;
39896;SDS011;25567;48.276;14.242;2022-11-15T08:21:18;105.43;;;31.23;;
39896;SDS011;25567;48.276;14.242;2022-11-15T08:23:46;143.40;;;31.40;;
39896;SDS011;25567;48.276;14.242;2022-11-15T08:26:13;99.75;;;30.35;;
39896;SDS011;25567;48.276;14.242;2022-11-15T08:28:40;96.00;;;30.30;;
39896;SDS011;25567;48.276;14.242;2022-11-15T08:31:12;112.57;;;31.50;;
39896;SDS011;25567;48.276;14.242;2022-11-15T08:33:41;111.85;;;33.55;;
39896;SDS011;25567;48.276;14.242;2022-11-15T08:36:10;158.75;;;36.25;;
39896;SDS011;25567;48.276;14.242;2022-11-15T08:38:39;119.18;;;34.38;;
39896;SDS011;25567;48.276;14.242;2022-11-15T08:41:09;142.35;;;35.38;;
39896;SDS011;25567;48.276;14.242;2022-11-15T08:43:39;115.32;;;35.45;;
39896;SDS011;25567;48.276;14.242;2022-11-15T08:46:07;147.57;;;39.15;;
39896;SDS011;25567;48.276;14.242;2022-11-15T08:48:38;128.95;;;38.00;;
39896;SDS011;25567;48.276;14.242;2022-11-15T08:51:04;132.07;;;38.30;;
39896;SDS011;25567;48.276;14.242;2022-11-15T08:53:31;144.25;;;43.75;;
39896;SDS011;25567;48.276;14.242;2022-11-15T08:55:58;137.68;;;41.80;;
39896;SDS011;25567;48.276;14.242;2022-11-15T08:58:25;132.55;;;37.92;;
39896;SDS011;25567;48.276;14.242;2022-11-15T09:00:51;115.03;;;37.88;;
39896;SDS011;25567;48.276;14.242;2022-11-15T09:03:18;137.38;;;33.08;;
39896;SDS011;25567;48.276;14.242;2022-11-15T09:05:48;111.47;;;31.10;;
39896;SDS011;25567;48.276;14.242;2022-11-15T09:08:15;99.43;;;31.80;;
39896;SDS011;25567;48.276;14.242;2022-11-15T09:11:03;99.38;;;32.08;;
39896;SDS011;25567;48.276;14.242;2022-11-15T09:13:31;111.65;;;31.10;;
39896;SDS011;25567;48.276;14.242;2022-11-15T09:15:58;144.80;;;32.25;;
39896;SDS011;25567;48.276;14.242;2022-11-15T09:18:26;101.80;;;33.53;;
39896;SDS011;25567;48.276;14.242;2022-11-15T09:20:55;112.78;;;32.95;;
39896;SDS011;25567;48.276;14.242;2022-11-15T09:23:23;99.95;;;33.75;;
39896;SDS011;25567;48.276;14.242;2022-11-15T09:25:50;103.07;;;32.03;;
39896;SDS011;25567;48.276;14.242;2022-11-15T09:28:18;102.30;;;32.33;;
39896;SDS011;25567;48.276;14.242;2022-11-15T09:30:44;107.88;;;33.08;;
39896;SDS011;25567;48.276;14.242;2022-11-15T09:33:11;105.25;;;32.22;;
39896;SDS011;25567;48.276;14.242;2022-11-15T09:35:41;113.43;;;33.85;;
39896;SDS011;25567;48.276;14.242;2022-11-15T09:38:08;110.60;;;31.42;;
39896;SDS011;25567;48.276;14.242;2022-11-15T09:40:36;111.32;;;34.47;;
39896;SDS011;25567;48.276;14.242;2022-11-15T09:45:52;91.25;;;29.48;;
39896;SDS011;25567;48.276;14.242;2022-11-15T09:51:29;92.28;;;29.40;;
39896;SDS011;25567;48.276;14.242;2022-11-15T09:54:08;105.90;;;32.60;;
39896;SDS011;25567;48.276;14.242;2022-11-15T10:03:02;108.03;;;31.73;;
39896;SDS011;25567;48.276;14.242;2022-11-15T10:05:41;90.15;;;29.80;;
39896;SDS011;25567;48.276;14.242;2022-11-15T10:08:13;115.13;;;31.63;;
39896;SDS011;25567;48.276;14.242;2022-11-15T10:10:45;115.28;;;33.28;;
39896;SDS011;25567;48.276;14.242;2022-11-15T10:13:22;120.72;;;34.97;;
39896;SDS011;25567;48.276;14.242;2022-11-15T10:15:53;122.25;;;34.05;;
39896;SDS011;25567;48.276;14.242;2022-11-15T10:18:34;115.32;;;32.53;;
39896;SDS011;25567;48.276;14.242;2022-11-15T10:21:12;120.47;;;35.05;;
39896;SDS011;25567;48.276;14.242;2022-11-15T10:23:44;133.00;;;37.93;;
39896;SDS011;25567;48.276;14.242;2022-11-15T10:26:11;137.38;;;36.00;;
39896;SDS011;25567;48.276;14.242;2022-11-15T10:28:41;126.00;;;35.13;;
39896;SDS011;25567;48.276;14.242;2022-11-15T10:31:21;136.13;;;38.42;;
39896;SDS011;25567;48.276;14.242;2022-11-15T10:33:48;134.07;;;37.08;;
39896;SDS011;25567;48.276;14.242;2022-11-15T10:36:16;129.25;;;36.28;;
39896;SDS011;25567;48.276;14.242;2022-11-15T10:38:52;136.98;;;36.80;;
39896;SDS011;25567;48.276;14.242;2022-11-15T10:41:21;118.78;;;34.90;;
39896;SDS011;25567;48.276;14.242;2022-11-15T10:44:11;123.88;;;34.85;;
39896;SDS011;25567;48.276;14.242;2022-11-15T10:47:03;124.78;;;34.53;;
39896;SDS011;25567;48.276;14.242;2022-11-15T10:49:32;145.88;;;44.53;;
39896;SDS011;25567;48.276;14.242;2022-11-15T10:54:33;134.52;;;40.08;;
39896;SDS011;25567;48.276;14.242;2022-11-15T10:57:16;132.90;;;40.63;;
39896;SDS011;25567;48.276;14.242;2022-11-15T10:59:46;130.55;;;39.03;;
39896;SDS011;25567;48.276;14.242;2022-11-15T11:04:58;131.15;;;41.05;;
39896;SDS011;25567;48.276;14.242;2022-11-15T11:07:27;117.80;;;35.58;;
39896;SDS011;25567;48.276;14.242;2022-11-15T11:09:58;120.22;;;36.17;;
39896;SDS011;25567;48.276;14.242;2022-11-15T11:12:28;101.22;;;33.05;;
39896;SDS011;25567;48.276;14.242;2022-11-15T11:14:58;98.15;;;30.65;;
39896;SDS011;25567;48.276;14.242;2022-11-15T11:17:36;119.80;;;34.53;;
39896;SDS011;25567;48.276;14.242;2022-11-15T11:20:20;111.13;;;33.53;;
39896;SDS011;25567;48.276;14.242;2022-11-15T11:23:03;107.82;;;32.08;;
39896;SDS011;25567;48.276;14.242;2022-11-15T11:33:41;100.97;;;32.83;;
39896;SDS011;25567;48.276;14.242;2022-11-15T11:36:27;103.95;;;31.50;;
39896;SDS011;25567;48.276;14.242;2022-11-15T11:39:11;113.47;;;32.63;;
39896;SDS011;25567;48.276;14.242;2022-11-15T11:42:04;89.82;;;30.13;;
39896;SDS011;25567;48.276;14.242;2022-11-15T11:47:47;108.30;;;31.17;;
39896;SDS011;25567;48.276;14.242;2022-11-15T11:50:18;99.72;;;32.53;;
39896;SDS011;25567;48.276;14.242;2022-11-15T11:55:44;113.53;;;35.38;;
39896;SDS011;25567;48.276;14.242;2022-11-15T11:58:16;103.30;;;34.10;;
39896;SDS011;25567;48.276;14.242;2022-11-15T12:00:49;118.20;;;34.60;;
39896;SDS011;25567;48.276;14.242;2022-11-15T12:03:23;91.68;;;30.10;;
39896;SDS011;25567;48.276;14.242;2022-11-15T12:11:15;82.10;;;25.73;;
39896;SDS011;25567;48.276;14.242;2022-11-15T12:13:46;71.25;;;24.67;;
39896;SDS011;25567;48.276;14.242;2022-11-15T12:16:21;75.75;;;25.95;;
39896;SDS011;25567;48.276;14.242;2022-11-15T12:18:54;79.45;;;26.38;;
39896;SDS011;25567;48.276;14.242;2022-11-15T12:23:57;80.82;;;25.42;;
39896;SDS011;25567;48.276;14.242;2022-11-15T12:29:03;71.07;;;24.63;;
39896;SDS011;25567;48.276;14.242;2022-11-15T12:31:38;68.65;;;23.52;;
39896;SDS011;25567;48.276;14.242;2022-11-15T12:40:19;71.53;;;23.83;;
39896;SDS011;25567;48.276;14.242;2022-11-15T12:42:57;73.65;;;25.85;;
39896;SDS011;25567;48.276;14.242;2022-11-15T12:45:44;67.60;;;25.25;;
39896;SDS011;25567;48.276;14.242;2022-11-15T12:48:51;66.28;;;25.05;;
39896;SDS011;25567;48.276;14.242;2022-11-15T12:51:20;54.55;;;22.20;;
39896;SDS011;25567;48.276;14.242;2022-11-15T12:57:50;63.05;;;21.98;;
39896;SDS011;25567;48.276;14.242;2022-11-15T13:02:25;59.90;;;23.00;;
39896;SDS011;25567;48.276;14.242;2022-11-15T13:05:26;57.78;;;22.17;;
39896;SDS011;25567;48.276;14.242;2022-11-15T13:17:56;63.67;;;23.73;;
39896;SDS011;25567;48.276;14.242;2022-11-15T13:20:28;60.53;;;22.30;;
39896;SDS011;25567;48.276;14.242;2022-11-15T13:25:43;59.88;;;20.73;;
39896;SDS011;25567;48.276;14.242;2022-11-15T13:28:21;63.28;;;23.00;;
39896;SDS011;25567;48.276;14.242;2022-11-15T13:30:54;53.42;;;20.85;;
39896;SDS011;25567;48.276;14.242;2022-11-15T13:33:25;60.47;;;21.20;;
39896;SDS011;25567;48.276;14.242;2022-11-15T13:36:05;61.58;;;21.10;;
39896;SDS011;25567;48.276;14.242;2022-11-15T13:38:36;64.85;;;22.95;;
39896;SDS011;25567;48.276;14.242;2022-11-15T13:43:48;64.88;;;23.65;;
39896;SDS011;25567;48.276;14.242;2022-11-15T13:46:17;60.50;;;23.05;;
39896;SDS011;25567;48.276;14.242;2022-11-15T13:48:46;70.20;;;25.13;;
39896;SDS011;25567;48.276;14.242;2022-11-15T13:51:18;61.20;;;21.95;;
39896;SDS011;25567;48.276;14.242;2022-11-15T13:54:03;84.68;;;29.92;;
39896;SDS011;25567;48.276;14.242;2022-11-15T13:56:48;76.72;;;27.77;;
39896;SDS011;25567;48.276;14.242;2022-11-15T14:01:53;74.80;;;26.75;;
39896;SDS011;25567;48.276;14.242;2022-11-15T14:04:23;76.63;;;27.85;;
39896;SDS011;25567;48.276;14.242;2022-11-15T14:06:53;85.15;;;30.50;;
39896;SDS011;25567;48.276;14.242;2022-11-15T14:11:49;70.13;;;26.85;;
39896;SDS011;25567;48.276;14.242;2022-11-15T14:14:19;75.38;;;28.77;;
39896;SDS011;25567;48.276;14.242;2022-11-15T14:16:48;66.18;;;25.67;;
39896;SDS011;25567;48.276;14.242;2022-11-15T14:24:44;70.20;;;25.95;;
39896;SDS011;25567;48.276;14.242;2022-11-15T14:27:20;76.47;;;25.38;;
39896;SDS011;25567;48.276;14.242;2022-11-15T14:29:52;65.22;;;23.85;;
39896;SDS011;25567;48.276;14.242;2022-11-15T14:32:27;79.07;;;26.15;;
39896;SDS011;25567;48.276;14.242;2022-11-15T14:37:25;57.67;;;21.85;;
39896;SDS011;25567;48.276;14.242;2022-11-15T14:39:55;56.00;;;21.23;;
39896;SDS011;25567;48.276;14.242;2022-11-15T14:42:22;54.30;;;21.05;;
39896;SDS011;25567;48.276;14.242;2022-11-15T14:44:49;62.22;;;21.38;;
39896;SDS011;25567;48.276;14.242;2022-11-15T14:47:16;60.83;;;22.25;;
39896;SDS011;25567;48.276;14.242;2022-11-15T14:49:43;49.85;;;20.70;;
39896;SDS011;25567;48.276;14.242;2022-11-15T14:54:58;72.85;;;27.80;;
39896;SDS011;25567;48.276;14.242;2022-11-15T14:57:25;63.22;;;24.95;;
39896;SDS011;25567;48.276;14.242;2022-11-15T14:59:52;62.78;;;22.95;;
39896;SDS011;25567;48.276;14.242;2022-11-15T15:02:20;63.95;;;23.83;;
39896;SDS011;25567;48.276;14.242;2022-11-15T15:04:49;60.15;;;21.83;;
39896;SDS011;25567;48.276;14.242;2022-11-15T15:07:16;59.50;;;23.02;;
39896;SDS011;25567;48.276;14.242;2022-11-15T15:09:44;58.13;;;21.70;;
39896;SDS011;25567;48.276;14.242;2022-11-15T15:12:15;61.40;;;23.58;;
39896;SDS011;25567;48.276;14.242;2022-11-15T15:14:44;75.00;;;28.20;;
39896;SDS011;25567;48.276;14.242;2022-11-15T15:17:12;97.30;;;33.78;;
39896;SDS011;25567;48.276;14.242;2022-11-15T15:19:39;109.13;;;35.22;;
39896;SDS011;25567;48.276;14.242;2022-11-15T15:22:05;115.07;;;36.78;;
39896;SDS011;25567;48.276;14.242;2022-11-15T15:24:36;68.05;;;24.27;;
39896;SDS011;25567;48.276;14.242;2022-11-15T15:27:03;57.88;;;21.40;;
39896;SDS011;25567;48.276;14.242;2022-11-15T15:29:29;51.67;;;20.30;;
39896;SDS011;25567;48.276;14.242;2022-11-15T15:31:56;46.97;;;19.60;;
39896;SDS011;25567;48.276;14.242;2022-11-15T15:34:23;47.42;;;18.85;;
39896;SDS011;25567;48.276;14.242;2022-11-15T15:36:50;56.38;;;18.67;;
39896;SDS011;25567;48.276;14.242;2022-11-15T15:39:33;43.88;;;17.77;;
39896;SDS011;25567;48.276;14.242;2022-11-15T15:41:59;47.75;;;17.67;;
39896;SDS011;25567;48.276;14.242;2022-11-15T15:44:26;44.75;;;17.08;;
39896;SDS011;25567;48.276;14.242;2022-11-15T15:46:53;46.38;;;18.05;;
39896;SDS011;25567;48.276;14.242;2022-11-15T15:49:19;35.88;;;15.30;;
39896;SDS011;25567;48.276;14.242;2022-11-15T15:51:46;38.10;;;16.10;;
39896;SDS011;25567;48.276;14.242;2022-11-15T15:54:12;39.45;;;16.90;;
39896;SDS011;25567;48.276;14.242;2022-11-15T15:56:39;37.58;;;15.68;;
39896;SDS011;25567;48.276;14.242;2022-11-15T15:59:06;39.65;;;16.23;;
39896;SDS011;25567;48.276;14.242;2022-11-15T16:01:32;38.22;;;15.82;;
39896;SDS011;25567;48.276;14.242;2022-11-15T16:03:59;39.88;;;16.00;;
39896;SDS011;25567;48.276;14.242;2022-11-15T16:06:32;39.00;;;16.05;;
39896;SDS011;25567;48.276;14.242;2022-11-15T16:09:02;36.97;;;16.58;;
39896;SDS011;25567;48.276;14.242;2022-11-15T16:11:46;35.28;;;15.38;;
39896;SDS011;25567;48.276;14.242;2022-11-15T16:14:13;37.72;;;16.98;;
39896;SDS011;25567;48.276;14.242;2022-11-15T16:16:39;39.60;;;15.82;;
39896;SDS011;25567;48.276;14.242;2022-11-15T16:19:07;41.58;;;17.80;;
39896;SDS011;25567;48.276;14.242;2022-11-15T16:21:36;43.25;;;16.70;;